sensor_id;sensor_type;location;lat;lon;timestamp;P1;durP1;ratioP1;P2;durP2;ratioP2
17127;SDS011;8679;50.842;4.322;2024-02-26T00:00:12;0.40;;;0.20;;
17127;SDS011;8679;50.842;4.322;2024-02-26T00:02:39;0.30;;;0.20;;
17127;SDS011;8679;50.842;4.322;2024-02-26T00:05:05;0.20;;;0.20;;
17127;SDS011;8679;50.842;4.322;2024-02-26T00:07:31;0.47;;;0.47;;
17127;SDS011;8679;50.842;4.322;2024-02-26T00:09:57;0.30;;;0.20;;
17127;SDS011;8679;50.842;4.322;2024-02-26T00:12:24;0.33;;;0.30;;
17127;SDS011;8679;50.842;4.322;2024-02-26T00:14:50;0.50;;;0.50;;
17127;SDS011;8679;50.842;4.322;2024-02-26T00:17:17;0.20;;;0.20;;
17127;SDS011;8679;50.842;4.322;2024-02-26T00:19:43;3.87;;;0.53;;
17127;SDS011;8679;50.842;4.322;2024-02-26T00:22:09;1.87;;;0.60;;
17127;SDS011;8679;50.842;4.322;2024-02-26T00:24:35;0.23;;;0.23;;
17127;SDS011;8679;50.842;4.322;2024-02-26T00:27:01;4.00;;;1.00;;
17127;SDS011;8679;50.842;4.322;2024-02-26T00:29:28;0.40;;;0.30;;
17127;SDS011;8679;50.842;4.322;2024-02-26T00:31:54;0.60;;;0.50;;
17127;SDS011;8679;50.842;4.322;2024-02-26T00:34:20;0.93;;;0.50;;
17127;SDS011;8679;50.842;4.322;2024-02-26T00:36:46;1.27;;;0.43;;
17127;SDS011;8679;50.842;4.322;2024-02-26T00:39:12;3.43;;;0.40;;
17127;SDS011;8679;50.842;4.322;2024-02-26T00:41:39;0.67;;;0.47;;
17127;SDS011;8679;50.842;4.322;2024-02-26T00:44:06;4.03;;;0.67;;
17127;SDS011;8679;50.842;4.322;2024-02-26T00:46:32;0.83;;;0.43;;
17127;SDS011;8679;50.842;4.322;2024-02-26T00:48:58;0.43;;;0.43;;
17127;SDS011;8679;50.842;4.322;2024-02-26T00:51:25;0.27;;;0.27;;
17127;SDS011;8679;50.842;4.322;2024-02-26T00:53:51;1.30;;;0.40;;
17127;SDS011;8679;50.842;4.322;2024-02-26T00:56:17;0.20;;;0.20;;
17127;SDS011;8679;50.842;4.322;2024-02-26T00:58:43;1.17;;;0.40;;
17127;SDS011;8679;50.842;4.322;2024-02-26T01:01:09;0.43;;;0.40;;
17127;SDS011;8679;50.842;4.322;2024-02-26T01:03:35;0.20;;;0.10;;
17127;SDS011;8679;50.842;4.322;2024-02-26T01:06:01;0.53;;;0.40;;
17127;SDS011;8679;50.842;4.322;2024-02-26T01:08:27;0.47;;;0.23;;
17127;SDS011;8679;50.842;4.322;2024-02-26T01:10:53;0.20;;;0.20;;
17127;SDS011;8679;50.842;4.322;2024-02-26T01:13:19;1.60;;;0.67;;
17127;SDS011;8679;50.842;4.322;2024-02-26T01:15:45;0.20;;;0.20;;
17127;SDS011;8679;50.842;4.322;2024-02-26T01:18:12;0.20;;;0.20;;
17127;SDS011;8679;50.842;4.322;2024-02-26T01:20:38;0.63;;;0.40;;
17127;SDS011;8679;50.842;4.322;2024-02-26T01:23:04;1.03;;;0.57;;
17127;SDS011;8679;50.842;4.322;2024-02-26T01:25:30;0.33;;;0.30;;
17127;SDS011;8679;50.842;4.322;2024-02-26T01:27:56;0.83;;;0.30;;
17127;SDS011;8679;50.842;4.322;2024-02-26T01:30:22;0.70;;;0.30;;
17127;SDS011;8679;50.842;4.322;2024-02-26T01:32:48;1.00;;;0.50;;
17127;SDS011;8679;50.842;4.322;2024-02-26T01:35:14;0.20;;;0.20;;
17127;SDS011;8679;50.842;4.322;2024-02-26T01:37:40;0.30;;;0.23;;
17127;SDS011;8679;50.842;4.322;2024-02-26T01:40:07;0.20;;;0.20;;
17127;SDS011;8679;50.842;4.322;2024-02-26T01:42:34;0.30;;;0.20;;
17127;SDS011;8679;50.842;4.322;2024-02-26T01:45:00;0.27;;;0.27;;
17127;SDS011;8679;50.842;4.322;2024-02-26T01:47:27;0.97;;;0.40;;
17127;SDS011;8679;50.842;4.322;2024-02-26T01:49:54;0.30;;;0.30;;
17127;SDS011;8679;50.842;4.322;2024-02-26T01:52:20;0.20;;;0.20;;
17127;SDS011;8679;50.842;4.322;2024-02-26T01:54:47;0.50;;;0.47;;
17127;SDS011;8679;50.842;4.322;2024-02-26T01:57:13;0.20;;;0.20;;
17127;SDS011;8679;50.842;4.322;2024-02-26T01:59:40;0.10;;;0.10;;
17127;SDS011;8679;50.842;4.322;2024-02-26T02:02:06;0.20;;;0.20;;
17127;SDS011;8679;50.842;4.322;2024-02-26T02:04:36;0.40;;;0.33;;
17127;SDS011;8679;50.842;4.322;2024-02-26T02:07:02;0.20;;;0.20;;
17127;SDS011;8679;50.842;4.322;2024-02-26T02:09:28;1.03;;;0.60;;
17127;SDS011;8679;50.842;4.322;2024-02-26T02:11:54;2.33;;;0.93;;
17127;SDS011;8679;50.842;4.322;2024-02-26T02:14:20;2.77;;;0.40;;
17127;SDS011;8679;50.842;4.322;2024-02-26T02:16:47;0.50;;;0.30;;
17127;SDS011;8679;50.842;4.322;2024-02-26T02:19:13;0.20;;;0.20;;
17127;SDS011;8679;50.842;4.322;2024-02-26T02:21:39;0.20;;;0.20;;
17127;SDS011;8679;50.842;4.322;2024-02-26T02:24:05;0.17;;;0.17;;
17127;SDS011;8679;50.842;4.322;2024-02-26T02:26:31;0.30;;;0.30;;
17127;SDS011;8679;50.842;4.322;2024-02-26T02:28:58;0.10;;;0.10;;
17127;SDS011;8679;50.842;4.322;2024-02-26T02:31:25;0.50;;;0.23;;
17127;SDS011;8679;50.842;4.322;2024-02-26T02:33:51;0.50;;;0.33;;
17127;SDS011;8679;50.842;4.322;2024-02-26T02:36:17;1.00;;;0.40;;
17127;SDS011;8679;50.842;4.322;2024-02-26T02:38:51;0.20;;;0.20;;
17127;SDS011;8679;50.842;4.322;2024-02-26T02:41:17;0.60;;;0.30;;
17127;SDS011;8679;50.842;4.322;2024-02-26T02:43:43;0.97;;;0.30;;
17127;SDS011;8679;50.842;4.322;2024-02-26T02:46:09;0.43;;;0.40;;
17127;SDS011;8679;50.842;4.322;2024-02-26T02:48:38;0.33;;;0.20;;
17127;SDS011;8679;50.842;4.322;2024-02-26T02:51:04;0.73;;;0.30;;
17127;SDS011;8679;50.842;4.322;2024-02-26T02:53:31;0.17;;;0.10;;
17127;SDS011;8679;50.842;4.322;2024-02-26T02:55:57;0.30;;;0.30;;
17127;SDS011;8679;50.842;4.322;2024-02-26T02:58:23;0.20;;;0.20;;
17127;SDS011;8679;50.842;4.322;2024-02-26T03:00:49;0.33;;;0.30;;
17127;SDS011;8679;50.842;4.322;2024-02-26T03:03:15;0.30;;;0.30;;
17127;SDS011;8679;50.842;4.322;2024-02-26T03:05:41;0.37;;;0.20;;
17127;SDS011;8679;50.842;4.322;2024-02-26T03:08:07;0.90;;;0.63;;
17127;SDS011;8679;50.842;4.322;2024-02-26T03:10:33;0.30;;;0.20;;
17127;SDS011;8679;50.842;4.322;2024-02-26T03:12:59;0.33;;;0.30;;
17127;SDS011;8679;50.842;4.322;2024-02-26T03:15:25;0.13;;;0.13;;
17127;SDS011;8679;50.842;4.322;2024-02-26T03:17:51;0.50;;;0.40;;
17127;SDS011;8679;50.842;4.322;2024-02-26T03:20:17;0.97;;;0.30;;
17127;SDS011;8679;50.842;4.322;2024-02-26T03:22:44;2.03;;;0.40;;
17127;SDS011;8679;50.842;4.322;2024-02-26T03:25:10;0.57;;;0.40;;
17127;SDS011;8679;50.842;4.322;2024-02-26T03:27:37;0.20;;;0.20;;
17127;SDS011;8679;50.842;4.322;2024-02-26T03:30:03;0.33;;;0.33;;
17127;SDS011;8679;50.842;4.322;2024-02-26T03:32:29;0.40;;;0.30;;
17127;SDS011;8679;50.842;4.322;2024-02-26T03:34:55;0.50;;;0.40;;
17127;SDS011;8679;50.842;4.322;2024-02-26T03:37:21;0.10;;;0.10;;
17127;SDS011;8679;50.842;4.322;2024-02-26T03:39:47;2.77;;;0.40;;
17127;SDS011;8679;50.842;4.322;2024-02-26T03:42:13;0.50;;;0.50;;
17127;SDS011;8679;50.842;4.322;2024-02-26T03:44:41;3.60;;;0.40;;
17127;SDS011;8679;50.842;4.322;2024-02-26T03:47:07;0.47;;;0.37;;
17127;SDS011;8679;50.842;4.322;2024-02-26T03:49:33;4.47;;;0.47;;
17127;SDS011;8679;50.842;4.322;2024-02-26T03:51:59;0.40;;;0.40;;
17127;SDS011;8679;50.842;4.322;2024-02-26T03:54:25;0.50;;;0.20;;
17127;SDS011;8679;50.842;4.322;2024-02-26T03:56:51;0.60;;;0.40;;
17127;SDS011;8679;50.842;4.322;2024-02-26T03:59:17;0.63;;;0.30;;
17127;SDS011;8679;50.842;4.322;2024-02-26T04:01:47;0.50;;;0.27;;
17127;SDS011;8679;50.842;4.322;2024-02-26T04:04:13;0.30;;;0.30;;
17127;SDS011;8679;50.842;4.322;2024-02-26T04:06:39;0.30;;;0.30;;
17127;SDS011;8679;50.842;4.322;2024-02-26T04:09:05;0.27;;;0.27;;
17127;SDS011;8679;50.842;4.322;2024-02-26T04:11:31;0.70;;;0.40;;
17127;SDS011;8679;50.842;4.322;2024-02-26T04:13:58;0.57;;;0.57;;
17127;SDS011;8679;50.842;4.322;2024-02-26T04:16:24;0.87;;;0.77;;
17127;SDS011;8679;50.842;4.322;2024-02-26T04:18:50;0.87;;;0.50;;
17127;SDS011;8679;50.842;4.322;2024-02-26T04:21:18;1.03;;;0.40;;
17127;SDS011;8679;50.842;4.322;2024-02-26T04:23:44;0.50;;;0.43;;
17127;SDS011;8679;50.842;4.322;2024-02-26T04:26:10;0.70;;;0.60;;
17127;SDS011;8679;50.842;4.322;2024-02-26T04:28:36;0.70;;;0.40;;
17127;SDS011;8679;50.842;4.322;2024-02-26T04:31:03;0.67;;;0.60;;
17127;SDS011;8679;50.842;4.322;2024-02-26T04:33:29;1.30;;;0.43;;
17127;SDS011;8679;50.842;4.322;2024-02-26T04:35:55;0.50;;;0.50;;
17127;SDS011;8679;50.842;4.322;2024-02-26T04:38:21;1.33;;;0.90;;
17127;SDS011;8679;50.842;4.322;2024-02-26T04:40:47;1.43;;;0.67;;
17127;SDS011;8679;50.842;4.322;2024-02-26T04:43:13;1.07;;;0.77;;
17127;SDS011;8679;50.842;4.322;2024-02-26T04:45:39;1.70;;;1.10;;
17127;SDS011;8679;50.842;4.322;2024-02-26T04:48:06;1.50;;;1.00;;
17127;SDS011;8679;50.842;4.322;2024-02-26T04:50:33;0.90;;;0.70;;
17127;SDS011;8679;50.842;4.322;2024-02-26T04:52:59;1.13;;;0.70;;
17127;SDS011;8679;50.842;4.322;2024-02-26T04:55:25;1.07;;;0.80;;
17127;SDS011;8679;50.842;4.322;2024-02-26T04:57:51;1.53;;;0.80;;
17127;SDS011;8679;50.842;4.322;2024-02-26T05:00:17;2.17;;;0.90;;
17127;SDS011;8679;50.842;4.322;2024-02-26T05:02:43;1.60;;;1.40;;
17127;SDS011;8679;50.842;4.322;2024-02-26T05:05:09;1.20;;;1.03;;
17127;SDS011;8679;50.842;4.322;2024-02-26T05:07:40;1.23;;;0.87;;
17127;SDS011;8679;50.842;4.322;2024-02-26T05:10:10;3.63;;;1.00;;
17127;SDS011;8679;50.842;4.322;2024-02-26T05:12:36;1.30;;;1.00;;
17127;SDS011;8679;50.842;4.322;2024-02-26T05:15:02;0.90;;;0.73;;
17127;SDS011;8679;50.842;4.322;2024-02-26T05:17:29;1.53;;;0.70;;
17127;SDS011;8679;50.842;4.322;2024-02-26T05:19:55;1.17;;;0.90;;
17127;SDS011;8679;50.842;4.322;2024-02-26T05:22:21;1.30;;;1.07;;
17127;SDS011;8679;50.842;4.322;2024-02-26T05:24:47;1.93;;;1.13;;
17127;SDS011;8679;50.842;4.322;2024-02-26T05:27:13;1.07;;;0.90;;
17127;SDS011;8679;50.842;4.322;2024-02-26T05:29:39;1.17;;;1.00;;
17127;SDS011;8679;50.842;4.322;2024-02-26T05:32:05;1.30;;;0.90;;
17127;SDS011;8679;50.842;4.322;2024-02-26T05:34:31;1.23;;;1.13;;
17127;SDS011;8679;50.842;4.322;2024-02-26T05:36:58;2.90;;;1.50;;
17127;SDS011;8679;50.842;4.322;2024-02-26T05:39:24;3.07;;;1.57;;
17127;SDS011;8679;50.842;4.322;2024-02-26T05:41:50;1.93;;;1.17;;
17127;SDS011;8679;50.842;4.322;2024-02-26T05:44:16;1.83;;;1.40;;
17127;SDS011;8679;50.842;4.322;2024-02-26T05:46:43;8.50;;;1.70;;
17127;SDS011;8679;50.842;4.322;2024-02-26T05:49:09;1.97;;;1.60;;
17127;SDS011;8679;50.842;4.322;2024-02-26T05:51:35;2.07;;;1.43;;
17127;SDS011;8679;50.842;4.322;2024-02-26T05:54:01;2.57;;;1.37;;
17127;SDS011;8679;50.842;4.322;2024-02-26T05:56:27;3.27;;;1.50;;
17127;SDS011;8679;50.842;4.322;2024-02-26T05:58:53;3.80;;;1.93;;
17127;SDS011;8679;50.842;4.322;2024-02-26T06:01:19;2.73;;;1.73;;
17127;SDS011;8679;50.842;4.322;2024-02-26T06:03:45;1.87;;;1.33;;
17127;SDS011;8679;50.842;4.322;2024-02-26T06:06:11;1.90;;;1.67;;
17127;SDS011;8679;50.842;4.322;2024-02-26T06:08:40;4.00;;;2.30;;
17127;SDS011;8679;50.842;4.322;2024-02-26T06:11:06;2.43;;;1.57;;
17127;SDS011;8679;50.842;4.322;2024-02-26T06:13:33;2.33;;;1.60;;
17127;SDS011;8679;50.842;4.322;2024-02-26T06:15:59;2.10;;;1.60;;
17127;SDS011;8679;50.842;4.322;2024-02-26T06:18:25;2.37;;;1.73;;
17127;SDS011;8679;50.842;4.322;2024-02-26T06:20:51;3.87;;;1.80;;
17127;SDS011;8679;50.842;4.322;2024-02-26T06:23:17;1.40;;;1.30;;
17127;SDS011;8679;50.842;4.322;2024-02-26T06:25:43;2.50;;;2.17;;
17127;SDS011;8679;50.842;4.322;2024-02-26T06:28:09;2.87;;;2.13;;
17127;SDS011;8679;50.842;4.322;2024-02-26T06:30:35;1.77;;;1.47;;
17127;SDS011;8679;50.842;4.322;2024-02-26T06:33:01;5.00;;;1.90;;
17127;SDS011;8679;50.842;4.322;2024-02-26T06:35:28;2.13;;;1.43;;
17127;SDS011;8679;50.842;4.322;2024-02-26T06:37:54;3.90;;;1.43;;
17127;SDS011;8679;50.842;4.322;2024-02-26T06:40:20;2.20;;;1.70;;
17127;SDS011;8679;50.842;4.322;2024-02-26T06:42:47;3.23;;;1.47;;
17127;SDS011;8679;50.842;4.322;2024-02-26T06:45:13;2.40;;;1.90;;
17127;SDS011;8679;50.842;4.322;2024-02-26T06:47:39;2.90;;;1.80;;
17127;SDS011;8679;50.842;4.322;2024-02-26T06:50:05;3.33;;;1.60;;
17127;SDS011;8679;50.842;4.322;2024-02-26T06:52:32;2.13;;;1.90;;
17127;SDS011;8679;50.842;4.322;2024-02-26T06:54:58;3.07;;;2.07;;
17127;SDS011;8679;50.842;4.322;2024-02-26T06:57:24;3.83;;;2.03;;
17127;SDS011;8679;50.842;4.322;2024-02-26T06:59:50;2.33;;;1.77;;
17127;SDS011;8679;50.842;4.322;2024-02-26T07:02:17;3.70;;;1.87;;
17127;SDS011;8679;50.842;4.322;2024-02-26T07:04:43;3.07;;;1.63;;
17127;SDS011;8679;50.842;4.322;2024-02-26T07:07:09;2.87;;;1.63;;
17127;SDS011;8679;50.842;4.322;2024-02-26T07:09:35;2.73;;;2.00;;
17127;SDS011;8679;50.842;4.322;2024-02-26T07:12:01;2.17;;;1.70;;
17127;SDS011;8679;50.842;4.322;2024-02-26T07:14:28;4.13;;;2.33;;
17127;SDS011;8679;50.842;4.322;2024-02-26T07:16:54;2.93;;;1.80;;
17127;SDS011;8679;50.842;4.322;2024-02-26T07:19:20;3.13;;;1.87;;
17127;SDS011;8679;50.842;4.322;2024-02-26T07:21:46;2.67;;;2.20;;
17127;SDS011;8679;50.842;4.322;2024-02-26T07:24:12;3.53;;;2.03;;
17127;SDS011;8679;50.842;4.322;2024-02-26T07:26:39;5.27;;;2.10;;
17127;SDS011;8679;50.842;4.322;2024-02-26T07:29:05;2.37;;;1.63;;
17127;SDS011;8679;50.842;4.322;2024-02-26T07:31:31;4.07;;;1.73;;
17127;SDS011;8679;50.842;4.322;2024-02-26T07:33:57;2.70;;;2.13;;
17127;SDS011;8679;50.842;4.322;2024-02-26T07:36:23;2.20;;;1.87;;
17127;SDS011;8679;50.842;4.322;2024-02-26T07:38:50;2.23;;;1.80;;
17127;SDS011;8679;50.842;4.322;2024-02-26T07:41:19;2.73;;;1.50;;
17127;SDS011;8679;50.842;4.322;2024-02-26T07:43:45;2.90;;;1.30;;
17127;SDS011;8679;50.842;4.322;2024-02-26T07:46:11;2.37;;;1.80;;
17127;SDS011;8679;50.842;4.322;2024-02-26T07:48:38;4.33;;;2.37;;
17127;SDS011;8679;50.842;4.322;2024-02-26T07:51:04;3.63;;;2.43;;
17127;SDS011;8679;50.842;4.322;2024-02-26T07:53:30;3.77;;;2.27;;
17127;SDS011;8679;50.842;4.322;2024-02-26T07:55:56;3.27;;;1.93;;
17127;SDS011;8679;50.842;4.322;2024-02-26T07:58:25;2.97;;;1.80;;
17127;SDS011;8679;50.842;4.322;2024-02-26T08:00:51;7.40;;;1.83;;
17127;SDS011;8679;50.842;4.322;2024-02-26T08:03:17;3.47;;;2.23;;
17127;SDS011;8679;50.842;4.322;2024-02-26T08:05:43;3.20;;;1.90;;
17127;SDS011;8679;50.842;4.322;2024-02-26T08:08:09;2.90;;;1.70;;
17127;SDS011;8679;50.842;4.322;2024-02-26T08:10:35;3.33;;;1.93;;
17127;SDS011;8679;50.842;4.322;2024-02-26T08:13:01;3.07;;;1.77;;
17127;SDS011;8679;50.842;4.322;2024-02-26T08:15:31;2.67;;;1.77;;
17127;SDS011;8679;50.842;4.322;2024-02-26T08:17:59;1.50;;;1.40;;
17127;SDS011;8679;50.842;4.322;2024-02-26T08:20:27;2.10;;;1.90;;
17127;SDS011;8679;50.842;4.322;2024-02-26T08:22:53;1.90;;;1.40;;
17127;SDS011;8679;50.842;4.322;2024-02-26T08:25:19;2.80;;;1.83;;
17127;SDS011;8679;50.842;4.322;2024-02-26T08:27:45;2.57;;;1.90;;
17127;SDS011;8679;50.842;4.322;2024-02-26T08:30:12;1.53;;;1.30;;
17127;SDS011;8679;50.842;4.322;2024-02-26T08:32:41;2.00;;;1.53;;
17127;SDS011;8679;50.842;4.322;2024-02-26T08:35:07;3.73;;;2.50;;
17127;SDS011;8679;50.842;4.322;2024-02-26T08:37:33;4.33;;;1.73;;
17127;SDS011;8679;50.842;4.322;2024-02-26T08:39:59;2.17;;;1.53;;
17127;SDS011;8679;50.842;4.322;2024-02-26T08:42:25;1.80;;;1.33;;
17127;SDS011;8679;50.842;4.322;2024-02-26T08:44:51;2.87;;;2.07;;
17127;SDS011;8679;50.842;4.322;2024-02-26T08:47:19;2.93;;;1.70;;
17127;SDS011;8679;50.842;4.322;2024-02-26T08:49:45;3.20;;;1.93;;
17127;SDS011;8679;50.842;4.322;2024-02-26T08:52:12;3.43;;;1.70;;
17127;SDS011;8679;50.842;4.322;2024-02-26T08:54:38;1.90;;;1.37;;
17127;SDS011;8679;50.842;4.322;2024-02-26T08:57:05;1.73;;;1.50;;
17127;SDS011;8679;50.842;4.322;2024-02-26T08:59:31;1.10;;;1.00;;
17127;SDS011;8679;50.842;4.322;2024-02-26T09:01:57;1.87;;;1.10;;
17127;SDS011;8679;50.842;4.322;2024-02-26T09:04:23;2.63;;;1.67;;
17127;SDS011;8679;50.842;4.322;2024-02-26T09:06:50;2.50;;;1.60;;
17127;SDS011;8679;50.842;4.322;2024-02-26T09:09:16;1.40;;;1.30;;
17127;SDS011;8679;50.842;4.322;2024-02-26T09:11:42;2.30;;;1.70;;
17127;SDS011;8679;50.842;4.322;2024-02-26T09:14:08;2.50;;;1.43;;
17127;SDS011;8679;50.842;4.322;2024-02-26T09:16:34;2.03;;;1.20;;
17127;SDS011;8679;50.842;4.322;2024-02-26T09:19:01;2.70;;;1.60;;
17127;SDS011;8679;50.842;4.322;2024-02-26T09:21:28;2.80;;;1.80;;
17127;SDS011;8679;50.842;4.322;2024-02-26T09:23:54;2.20;;;1.33;;
17127;SDS011;8679;50.842;4.322;2024-02-26T09:26:20;2.60;;;1.70;;
17127;SDS011;8679;50.842;4.322;2024-02-26T09:28:46;2.33;;;1.80;;
17127;SDS011;8679;50.842;4.322;2024-02-26T09:31:12;1.73;;;1.30;;
17127;SDS011;8679;50.842;4.322;2024-02-26T09:33:43;1.63;;;1.30;;
17127;SDS011;8679;50.842;4.322;2024-02-26T09:36:09;2.00;;;1.50;;
17127;SDS011;8679;50.842;4.322;2024-02-26T09:38:36;2.00;;;1.53;;
17127;SDS011;8679;50.842;4.322;2024-02-26T09:41:03;2.63;;;1.80;;
17127;SDS011;8679;50.842;4.322;2024-02-26T09:43:34;2.30;;;1.73;;
17127;SDS011;8679;50.842;4.322;2024-02-26T09:46:01;2.20;;;1.30;;
17127;SDS011;8679;50.842;4.322;2024-02-26T09:48:28;1.97;;;1.17;;
17127;SDS011;8679;50.842;4.322;2024-02-26T09:50:54;2.43;;;1.57;;
17127;SDS011;8679;50.842;4.322;2024-02-26T09:53:20;2.43;;;1.30;;
17127;SDS011;8679;50.842;4.322;2024-02-26T09:55:47;2.80;;;1.80;;
17127;SDS011;8679;50.842;4.322;2024-02-26T09:58:13;3.17;;;1.80;;
17127;SDS011;8679;50.842;4.322;2024-02-26T10:00:43;2.40;;;1.47;;
17127;SDS011;8679;50.842;4.322;2024-02-26T10:03:13;2.87;;;1.80;;
17127;SDS011;8679;50.842;4.322;2024-02-26T10:05:41;2.50;;;1.90;;
17127;SDS011;8679;50.842;4.322;2024-02-26T10:08:08;1.97;;;1.63;;
17127;SDS011;8679;50.842;4.322;2024-02-26T10:10:34;2.97;;;1.47;;
17127;SDS011;8679;50.842;4.322;2024-02-26T10:13:02;1.40;;;1.30;;
17127;SDS011;8679;50.842;4.322;2024-02-26T10:15:35;2.87;;;1.70;;
17127;SDS011;8679;50.842;4.322;2024-02-26T10:18:03;1.93;;;1.17;;
17127;SDS011;8679;50.842;4.322;2024-02-26T10:20:29;1.53;;;1.03;;
17127;SDS011;8679;50.842;4.322;2024-02-26T10:22:57;2.67;;;1.70;;
17127;SDS011;8679;50.842;4.322;2024-02-26T10:25:23;1.67;;;1.50;;
17127;SDS011;8679;50.842;4.322;2024-02-26T10:27:49;2.80;;;1.60;;
17127;SDS011;8679;50.842;4.322;2024-02-26T10:30:19;1.50;;;1.33;;
17127;SDS011;8679;50.842;4.322;2024-02-26T10:32:46;2.87;;;1.77;;
17127;SDS011;8679;50.842;4.322;2024-02-26T10:35:12;2.23;;;1.37;;
17127;SDS011;8679;50.842;4.322;2024-02-26T10:37:39;1.13;;;0.90;;
17127;SDS011;8679;50.842;4.322;2024-02-26T10:40:08;1.30;;;1.20;;
17127;SDS011;8679;50.842;4.322;2024-02-26T10:42:35;1.13;;;1.00;;
17127;SDS011;8679;50.842;4.322;2024-02-26T10:45:01;1.57;;;1.10;;
17127;SDS011;8679;50.842;4.322;2024-02-26T10:47:28;2.57;;;1.67;;
17127;SDS011;8679;50.842;4.322;2024-02-26T10:49:54;1.20;;;0.90;;
17127;SDS011;8679;50.842;4.322;2024-02-26T10:52:20;1.47;;;1.13;;
17127;SDS011;8679;50.842;4.322;2024-02-26T10:54:47;1.23;;;1.10;;
17127;SDS011;8679;50.842;4.322;2024-02-26T10:57:14;2.83;;;1.13;;
17127;SDS011;8679;50.842;4.322;2024-02-26T10:59:42;1.20;;;1.10;;
17127;SDS011;8679;50.842;4.322;2024-02-26T11:02:08;0.70;;;0.67;;
17127;SDS011;8679;50.842;4.322;2024-02-26T11:04:36;1.30;;;0.87;;
17127;SDS011;8679;50.842;4.322;2024-02-26T11:07:03;0.83;;;0.63;;
17127;SDS011;8679;50.842;4.322;2024-02-26T11:09:30;1.57;;;0.97;;
17127;SDS011;8679;50.842;4.322;2024-02-26T11:11:57;2.97;;;1.33;;
17127;SDS011;8679;50.842;4.322;2024-02-26T11:14:24;1.40;;;1.13;;
17127;SDS011;8679;50.842;4.322;2024-02-26T11:16:51;0.80;;;0.63;;
17127;SDS011;8679;50.842;4.322;2024-02-26T11:19:17;0.80;;;0.80;;
17127;SDS011;8679;50.842;4.322;2024-02-26T11:21:43;1.23;;;0.67;;
17127;SDS011;8679;50.842;4.322;2024-02-26T11:24:11;0.80;;;0.60;;
17127;SDS011;8679;50.842;4.322;2024-02-26T11:26:45;0.70;;;0.60;;
17127;SDS011;8679;50.842;4.322;2024-02-26T11:29:13;1.10;;;0.87;;
17127;SDS011;8679;50.842;4.322;2024-02-26T11:31:41;1.00;;;0.57;;
17127;SDS011;8679;50.842;4.322;2024-02-26T11:34:07;1.00;;;0.70;;
17127;SDS011;8679;50.842;4.322;2024-02-26T11:36:34;3.57;;;0.90;;
17127;SDS011;8679;50.842;4.322;2024-02-26T11:39:03;0.80;;;0.50;;
17127;SDS011;8679;50.842;4.322;2024-02-26T11:41:31;1.90;;;1.07;;
17127;SDS011;8679;50.842;4.322;2024-02-26T11:44:01;1.33;;;0.80;;
17127;SDS011;8679;50.842;4.322;2024-02-26T11:46:30;1.97;;;0.57;;
17127;SDS011;8679;50.842;4.322;2024-02-26T11:49:00;0.60;;;0.57;;
17127;SDS011;8679;50.842;4.322;2024-02-26T11:51:27;1.50;;;0.90;;
17127;SDS011;8679;50.842;4.322;2024-02-26T11:53:54;1.13;;;1.03;;
17127;SDS011;8679;50.842;4.322;2024-02-26T11:56:23;4.60;;;1.77;;
17127;SDS011;8679;50.842;4.322;2024-02-26T11:58:53;1.27;;;0.73;;
17127;SDS011;8679;50.842;4.322;2024-02-26T12:04:04;1.23;;;1.13;;
17127;SDS011;8679;50.842;4.322;2024-02-26T12:06:31;1.57;;;0.80;;
17127;SDS011;8679;50.842;4.322;2024-02-26T12:08:57;0.57;;;0.43;;
17127;SDS011;8679;50.842;4.322;2024-02-26T12:11:23;0.97;;;0.60;;
17127;SDS011;8679;50.842;4.322;2024-02-26T12:13:53;0.70;;;0.70;;
17127;SDS011;8679;50.842;4.322;2024-02-26T12:16:38;0.80;;;0.70;;
17127;SDS011;8679;50.842;4.322;2024-02-26T12:19:04;3.57;;;1.17;;
17127;SDS011;8679;50.842;4.322;2024-02-26T12:21:33;0.90;;;0.77;;
17127;SDS011;8679;50.842;4.322;2024-02-26T12:26:55;0.77;;;0.73;;
17127;SDS011;8679;50.842;4.322;2024-02-26T12:29:21;1.07;;;0.80;;
17127;SDS011;8679;50.842;4.322;2024-02-26T12:31:47;1.20;;;0.90;;
17127;SDS011;8679;50.842;4.322;2024-02-26T12:34:13;0.70;;;0.63;;
17127;SDS011;8679;50.842;4.322;2024-02-26T12:36:40;0.60;;;0.57;;
17127;SDS011;8679;50.842;4.322;2024-02-26T12:39:07;4.23;;;1.50;;
17127;SDS011;8679;50.842;4.322;2024-02-26T12:41:34;2.67;;;1.43;;
17127;SDS011;8679;50.842;4.322;2024-02-26T12:44:00;2.53;;;1.33;;
17127;SDS011;8679;50.842;4.322;2024-02-26T12:46:26;1.77;;;0.60;;
17127;SDS011;8679;50.842;4.322;2024-02-26T12:48:54;1.50;;;0.90;;
17127;SDS011;8679;50.842;4.322;2024-02-26T12:51:22;1.00;;;0.83;;
17127;SDS011;8679;50.842;4.322;2024-02-26T12:53:49;3.40;;;0.73;;
17127;SDS011;8679;50.842;4.322;2024-02-26T12:56:17;3.53;;;1.20;;
17127;SDS011;8679;50.842;4.322;2024-02-26T12:58:43;1.63;;;1.17;;
17127;SDS011;8679;50.842;4.322;2024-02-26T13:01:14;2.57;;;1.90;;
17127;SDS011;8679;50.842;4.322;2024-02-26T13:03:40;1.87;;;1.00;;
17127;SDS011;8679;50.842;4.322;2024-02-26T13:06:06;4.30;;;1.67;;
17127;SDS011;8679;50.842;4.322;2024-02-26T13:08:33;1.10;;;0.70;;
17127;SDS011;8679;50.842;4.322;2024-02-26T13:10:59;0.90;;;0.67;;
17127;SDS011;8679;50.842;4.322;2024-02-26T13:13:26;1.87;;;1.00;;
17127;SDS011;8679;50.842;4.322;2024-02-26T13:16:02;1.63;;;0.90;;
17127;SDS011;8679;50.842;4.322;2024-02-26T13:18:29;1.30;;;0.80;;
17127;SDS011;8679;50.842;4.322;2024-02-26T13:21:06;1.10;;;1.00;;
17127;SDS011;8679;50.842;4.322;2024-02-26T13:23:33;2.07;;;0.90;;
17127;SDS011;8679;50.842;4.322;2024-02-26T13:25:59;1.13;;;1.03;;
17127;SDS011;8679;50.842;4.322;2024-02-26T13:28:25;1.13;;;0.70;;
17127;SDS011;8679;50.842;4.322;2024-02-26T13:30:56;2.30;;;1.23;;
17127;SDS011;8679;50.842;4.322;2024-02-26T13:33:22;1.63;;;1.00;;
17127;SDS011;8679;50.842;4.322;2024-02-26T13:35:48;1.67;;;1.00;;
17127;SDS011;8679;50.842;4.322;2024-02-26T13:38:14;1.50;;;1.30;;
17127;SDS011;8679;50.842;4.322;2024-02-26T13:40:40;1.90;;;1.10;;
17127;SDS011;8679;50.842;4.322;2024-02-26T13:43:06;4.83;;;1.67;;
17127;SDS011;8679;50.842;4.322;2024-02-26T13:45:37;2.67;;;1.50;;
17127;SDS011;8679;50.842;4.322;2024-02-26T13:48:04;1.50;;;1.40;;
17127;SDS011;8679;50.842;4.322;2024-02-26T13:50:30;2.37;;;1.20;;
17127;SDS011;8679;50.842;4.322;2024-02-26T13:52:56;2.93;;;1.10;;
17127;SDS011;8679;50.842;4.322;2024-02-26T13:55:23;4.37;;;1.47;;
17127;SDS011;8679;50.842;4.322;2024-02-26T13:57:51;1.63;;;1.23;;
17127;SDS011;8679;50.842;4.322;2024-02-26T14:00:19;1.40;;;1.07;;
17127;SDS011;8679;50.842;4.322;2024-02-26T14:02:45;1.77;;;1.00;;
17127;SDS011;8679;50.842;4.322;2024-02-26T14:05:11;2.20;;;1.50;;
17127;SDS011;8679;50.842;4.322;2024-02-26T14:07:38;6.07;;;1.43;;
17127;SDS011;8679;50.842;4.322;2024-02-26T14:10:05;0.87;;;0.63;;
17127;SDS011;8679;50.842;4.322;2024-02-26T14:12:31;2.90;;;1.27;;
17127;SDS011;8679;50.842;4.322;2024-02-26T14:14:57;2.80;;;1.30;;
17127;SDS011;8679;50.842;4.322;2024-02-26T14:17:25;1.13;;;1.03;;
17127;SDS011;8679;50.842;4.322;2024-02-26T14:19:51;2.07;;;1.43;;
17127;SDS011;8679;50.842;4.322;2024-02-26T14:22:18;2.20;;;1.43;;
17127;SDS011;8679;50.842;4.322;2024-02-26T14:24:44;2.17;;;1.43;;
17127;SDS011;8679;50.842;4.322;2024-02-26T14:27:10;3.00;;;1.67;;
17127;SDS011;8679;50.842;4.322;2024-02-26T14:29:41;3.53;;;2.20;;
17127;SDS011;8679;50.842;4.322;2024-02-26T14:32:08;2.80;;;1.97;;
17127;SDS011;8679;50.842;4.322;2024-02-26T14:34:34;2.53;;;1.50;;
17127;SDS011;8679;50.842;4.322;2024-02-26T14:37:00;3.63;;;1.33;;
17127;SDS011;8679;50.842;4.322;2024-02-26T14:39:26;2.97;;;1.70;;
17127;SDS011;8679;50.842;4.322;2024-02-26T14:41:54;2.23;;;1.43;;
17127;SDS011;8679;50.842;4.322;2024-02-26T14:44:26;2.53;;;1.30;;
17127;SDS011;8679;50.842;4.322;2024-02-26T14:46:52;2.07;;;1.00;;
17127;SDS011;8679;50.842;4.322;2024-02-26T14:49:18;1.83;;;1.40;;
17127;SDS011;8679;50.842;4.322;2024-02-26T14:51:44;4.87;;;1.90;;
17127;SDS011;8679;50.842;4.322;2024-02-26T14:54:11;2.23;;;1.23;;
17127;SDS011;8679;50.842;4.322;2024-02-26T14:56:37;3.43;;;1.20;;
17127;SDS011;8679;50.842;4.322;2024-02-26T14:59:03;5.10;;;2.50;;
17127;SDS011;8679;50.842;4.322;2024-02-26T15:01:29;2.70;;;1.63;;